Time;durP1;ratioP1;P1;durP2;ratioP2;P2;SDS_P1;SDS_P2;PMS_P1;PMS_P2;Temp;Humidity;BMP_temperature;BMP_pressure;BME280_temperature;BME280_humidity;BME280_pressure;Samples;Min_cycle;Max_cycle;Signal;HPM_P1;HPM_P2
2023/02/22 00:00:18;;;;;;;7.05;3.37;;;8.00;51.40;;;;;;2308190;53;20948;-81
2023/02/22 00:02:51;;;;;;;7.07;3.08;;;8.00;51.50;;;;;;2311785;53;21807;-81
2023/02/22 00:05:23;;;;;;;6.37;2.75;;;7.90;51.60;;;;;;2550435;53;20893;-83
2023/02/22 00:07:49;;;;;;;6.97;2.90;;;7.90;51.50;;;;;;2549840;53;20935;-82
2023/02/22 00:10:19;;;;;;;5.55;2.62;;;7.90;51.50;;;;;;2539463;53;20979;-82
2023/02/22 00:12:47;;;;;;;5.37;2.47;;;7.90;51.60;;;;;;2547178;53;20971;-83
2023/02/22 00:15:13;;;;;;;5.65;2.55;;;7.90;51.60;;;;;;2547585;53;20958;-82
2023/02/22 00:17:40;;;;;;;4.60;2.40;;;7.90;51.70;;;;;;2548467;53;21685;-81
2023/02/22 00:20:08;;;;;;;5.28;2.30;;;7.90;51.70;;;;;;2548275;53;21008;-82
2023/02/22 00:22:35;;;;;;;5.15;2.25;;;7.90;51.80;;;;;;2548185;53;20942;-82
2023/02/22 00:25:01;;;;;;;5.15;2.37;;;7.90;51.70;;;;;;2548785;53;20942;-83
2023/02/22 00:27:27;;;;;;;4.50;1.87;;;7.80;51.70;;;;;;2547426;53;20963;-83
2023/02/22 00:29:55;;;;;;;4.70;2.25;;;7.90;51.80;;;;;;2547276;53;21651;-82
2023/02/22 00:32:22;;;;;;;3.65;1.75;;;7.80;51.80;;;;;;2311623;53;20979;-83
2023/02/22 00:34:52;;;;;;;3.67;1.85;;;7.80;51.80;;;;;;2310842;53;20939;-81
2023/02/22 00:37:18;;;;;;;4.60;2.10;;;7.80;51.70;;;;;;2548532;53;20947;-82
2023/02/22 00:39:48;;;;;;;4.32;2.10;;;7.80;51.80;;;;;;2548315;53;20923;-82
2023/02/22 00:42:16;;;;;;;3.47;1.92;;;7.80;52.00;;;;;;2548630;53;21037;-82
2023/02/22 00:44:42;;;;;;;6.45;2.10;;;7.80;52.10;;;;;;2548287;53;20954;-81
2023/02/22 00:47:08;;;;;;;5.50;2.33;;;7.80;52.00;;;;;;2547079;53;20992;-82
2023/02/22 00:49:35;;;;;;;4.00;2.12;;;7.80;51.90;;;;;;2541438;53;20999;-82
2023/02/22 00:52:07;;;;;;;4.80;2.20;;;7.80;51.90;;;;;;2512470;53;20970;-83
2023/02/22 00:54:34;;;;;;;5.20;2.20;;;7.70;52.00;;;;;;2549387;53;20947;-83
2023/02/22 00:57:00;;;;;;;5.57;2.35;;;7.70;51.90;;;;;;2548578;53;21567;-83
2023/02/22 00:59:27;;;;;;;3.58;1.87;;;7.70;51.90;;;;;;2549989;53;22257;-82
2023/02/22 01:01:53;;;;;;;6.03;2.65;;;7.70;52.00;;;;;;2548781;53;20963;-81
2023/02/22 01:04:20;;;;;;;3.62;1.80;;;7.70;51.90;;;;;;2550360;53;20947;-83
2023/02/22 01:06:46;;;;;;;5.00;2.20;;;7.70;52.10;;;;;;2548253;53;20955;-82
2023/02/22 01:09:12;;;;;;;4.90;1.95;;;7.70;52.10;;;;;;2548849;53;20904;-82
2023/02/22 01:11:40;;;;;;;4.47;2.10;;;7.60;52.10;;;;;;2548912;53;20939;-80
2023/02/22 01:14:08;;;;;;;3.92;1.62;;;7.60;52.00;;;;;;2311688;53;21840;-81
2023/02/22 01:16:35;;;;;;;4.62;1.62;;;7.60;52.00;;;;;;2549832;53;20951;-82
2023/02/22 01:19:01;;;;;;;3.58;1.83;;;7.60;51.90;;;;;;2548507;53;20966;-82
2023/02/22 01:21:28;;;;;;;5.47;1.98;;;7.60;51.90;;;;;;2549475;53;21003;-82
2023/02/22 01:23:54;;;;;;;4.28;2.15;;;7.60;52.00;;;;;;2311220;53;20915;-82
2023/02/22 01:26:20;;;;;;;3.37;1.45;;;7.50;51.90;;;;;;2549985;53;20987;-82
2023/02/22 01:28:50;;;;;;;4.10;1.67;;;7.50;51.90;;;;;;2547474;53;20915;-81
2023/02/22 01:31:19;;;;;;;3.95;2.00;;;7.50;51.90;;;;;;2537167;53;20970;-82
2023/02/22 01:33:46;;;;;;;4.22;1.55;;;7.50;52.00;;;;;;2549015;53;20939;-82
2023/02/22 01:36:12;;;;;;;3.65;1.52;;;7.50;52.00;;;;;;2549098;53;21009;-83
2023/02/22 01:38:38;;;;;;;6.10;2.28;;;7.30;51.90;;;;;;2311573;53;20935;-82
2023/02/22 01:41:05;;;;;;;4.22;1.90;;;7.40;52.00;;;;;;2548501;53;20971;-82
2023/02/22 01:43:31;;;;;;;4.22;1.75;;;7.40;52.00;;;;;;2548267;53;20959;-82
2023/02/22 01:47:00;;;;;;;4.15;1.62;;;7.40;52.10;;;;;;2546999;53;20947;-83
2023/02/22 01:50:00;;;;;;;3.65;1.70;;;7.30;52.20;;;;;;2548284;53;20947;-83
2023/02/22 01:52:26;;;;;;;2.92;1.23;;;7.40;52.10;;;;;;2547489;53;21507;-82
2023/02/22 01:54:55;;;;;;;3.28;1.52;;;7.30;52.00;;;;;;2548425;53;21112;-82
2023/02/22 01:57:32;;;;;;;3.25;1.37;;;7.30;52.10;;;;;;2313090;53;20896;-82
2023/02/22 02:00:11;;;;;;;3.65;1.55;;;7.20;52.70;;;;;;2547963;53;20991;-82
2023/02/22 02:02:43;;;;;;;3.42;1.67;;;7.20;52.10;;;;;;2311779;53;20959;-81
2023/02/22 02:05:09;;;;;;;4.33;1.90;;;7.20;52.10;;;;;;2549086;53;20963;-82
2023/02/22 02:07:36;;;;;;;3.83;1.48;;;7.20;52.10;;;;;;2549661;53;20963;-81
2023/02/22 02:10:13;;;;;;;4.65;1.83;;;7.10;52.10;;;;;;2548689;53;20943;-81
2023/02/22 02:12:43;;;;;;;3.62;1.80;;;7.10;52.20;;;;;;2550916;53;20903;-81
2023/02/22 02:15:30;;;;;;;4.03;1.77;;;7.10;52.20;;;;;;2550780;53;20930;-82
2023/02/22 02:18:02;;;;;;;4.15;1.90;;;7.10;52.30;;;;;;2550811;53;20952;-82
2023/02/22 02:21:00;;;;;;;5.32;2.20;;;7.10;52.30;;;;;;2312322;53;21349;-81
2023/02/22 02:24:50;;;;;;;6.25;2.58;;;7.00;52.40;;;;;;2312853;53;20943;-82
2023/02/22 02:27:24;;;;;;;3.90;1.73;;;7.00;52.50;;;;;;2551466;53;21003;-81
2023/02/22 02:33:45;;;;;;;4.55;1.77;;;7.00;52.30;;;;;;2549735;53;20827;-81
2023/02/22 02:36:28;;;;;;;4.85;2.15;;;7.00;52.50;;;;;;2549735;53;20964;-81
2023/02/22 02:39:07;;;;;;;5.12;2.10;;;7.00;52.30;;;;;;2548916;53;20991;-82
2023/02/22 02:41:36;;;;;;;4.72;2.10;;;7.00;52.40;;;;;;2313317;53;20994;-81
2023/02/22 02:45:01;;;;;;;5.15;2.78;;;7.10;52.40;;;;;;2548952;53;20982;-82
2023/02/22 02:47:33;;;;;;;4.68;2.45;;;7.00;52.50;;;;;;2311788;53;21295;-82
2023/02/22 02:50:06;;;;;;;6.25;2.33;;;6.90;52.40;;;;;;2548733;53;20912;-81
2023/02/22 02:52:33;;;;;;;7.60;2.40;;;6.90;52.40;;;;;;2550474;53;21050;-81
2023/02/22 02:55:03;;;;;;;4.15;2.10;;;6.90;52.40;;;;;;2548325;53;20923;-81
2023/02/22 02:57:30;;;;;;;4.40;2.00;;;6.90;52.50;;;;;;2550358;53;20903;-82
2023/02/22 02:59:56;;;;;;;5.43;2.60;;;6.80;52.40;;;;;;2545810;53;21007;-81
2023/02/22 03:02:46;;;;;;;3.90;2.00;;;6.80;52.40;;;;;;2305168;54;20916;-82
2023/02/22 03:05:40;;;;;;;5.15;2.00;;;6.80;52.50;;;;;;2549431;53;21038;-80
2023/02/22 03:08:33;;;;;;;3.75;1.80;;;6.80;52.50;;;;;;2540234;53;20909;-81
2023/02/22 03:11:21;;;;;;;3.65;1.58;;;6.80;52.40;;;;;;2548354;53;20955;-81
2023/02/22 03:14:05;;;;;;;4.60;1.80;;;6.80;52.50;;;;;;2549106;53;21867;-81
2023/02/22 03:16:49;;;;;;;3.53;1.65;;;6.70;52.30;;;;;;2549960;53;20907;-81
2023/02/22 03:19:36;;;;;;;3.40;1.83;;;6.70;52.40;;;;;;2549330;53;20954;-82
2023/02/22 03:22:23;;;;;;;4.18;1.92;;;6.70;52.40;;;;;;2313000;53;21218;-81
2023/02/22 03:26:06;;;;;;;5.15;1.77;;;6.70;52.50;;;;;;2550008;53;20975;-81
2023/02/22 03:28:38;;;;;;;4.55;1.52;;;6.70;52.50;;;;;;2312010;53;20928;-81
2023/02/22 03:31:15;;;;;;;3.95;1.85;;;6.60;52.30;;;;;;2311358;53;21007;-82
2023/02/22 03:33:45;;;;;;;3.83;1.70;;;6.60;52.40;;;;;;2306720;54;21002;-81
2023/02/22 03:36:19;;;;;;;3.62;1.62;;;6.60;52.40;;;;;;2551135;53;20892;-82
2023/02/22 03:38:45;;;;;;;3.67;1.52;;;6.50;52.40;;;;;;2312027;53;20908;-81
2023/02/22 03:41:11;;;;;;;3.00;1.50;;;6.50;52.30;;;;;;2547049;53;20974;-82
2023/02/22 03:43:48;;;;;;;3.03;1.42;;;6.50;52.40;;;;;;2552062;53;20883;-82
2023/02/22 03:46:14;;;;;;;3.72;1.65;;;6.50;52.50;;;;;;2312333;53;20910;-82
2023/02/22 03:48:48;;;;;;;3.72;1.75;;;6.50;52.50;;;;;;2312709;53;20936;-82
2023/02/22 03:51:14;;;;;;;3.17;1.37;;;6.40;52.50;;;;;;2551277;53;21018;-81
2023/02/22 03:53:43;;;;;;;3.08;1.35;;;6.40;52.50;;;;;;2313128;53;20971;-82
2023/02/22 03:56:14;;;;;;;4.07;1.85;;;6.40;52.60;;;;;;2312973;53;20951;-81
2023/02/22 03:58:43;;;;;;;3.72;1.40;;;6.40;52.60;;;;;;2552228;53;21003;-82
2023/02/22 04:01:10;;;;;;;3.67;1.40;;;6.40;52.60;;;;;;2550574;53;20963;-82
2023/02/22 04:03:36;;;;;;;5.35;1.73;;;6.30;52.60;;;;;;2552512;53;20939;-82
2023/02/22 04:06:02;;;;;;;3.87;1.52;;;6.40;52.60;;;;;;2551479;53;21014;-82
2023/02/22 04:08:29;;;;;;;3.12;1.40;;;6.30;52.70;;;;;;2511477;53;21271;-81
2023/02/22 04:10:55;;;;;;;3.47;1.52;;;6.30;52.60;;;;;;2541591;53;20880;-82
2023/02/22 04:13:21;;;;;;;2.80;1.27;;;6.30;52.70;;;;;;2552390;53;20930;-82
2023/02/22 04:15:48;;;;;;;3.33;1.50;;;6.30;52.70;;;;;;2551672;53;20947;-82
2023/02/22 04:18:15;;;;;;;3.20;1.27;;;6.30;52.80;;;;;;2551518;53;20919;-82
2023/02/22 04:20:42;;;;;;;2.53;1.02;;;6.20;52.70;;;;;;2541292;53;20912;-82
2023/02/22 04:23:08;;;;;;;3.08;1.45;;;6.20;52.70;;;;;;2312314;53;20895;-81
2023/02/22 04:25:35;;;;;;;3.03;1.27;;;6.20;52.70;;;;;;2545395;53;21960;-83
2023/02/22 04:28:01;;;;;;;2.83;1.30;;;6.20;52.80;;;;;;2308333;53;20943;-82
2023/02/22 04:30:28;;;;;;;3.42;1.83;;;6.20;52.80;;;;;;2312903;53;20919;-83
2023/02/22 04:32:58;;;;;;;2.90;1.40;;;6.20;52.90;;;;;;2551300;53;20820;-82
2023/02/22 04:35:25;;;;;;;3.58;1.48;;;6.20;52.90;;;;;;2552599;53;20848;-81
2023/02/22 04:37:52;;;;;;;3.10;1.37;;;6.20;52.90;;;;;;2551767;53;20894;-81
2023/02/22 04:40:29;;;;;;;3.55;1.40;;;6.00;52.60;;;;;;2551675;53;21019;-81
2023/02/22 04:43:07;;;;;;;3.30;1.30;;;6.10;52.90;;;;;;2551213;53;20856;-82
2023/02/22 04:45:33;;;;;;;2.92;1.30;;;6.10;52.90;;;;;;2552407;53;20931;-82
2023/02/22 04:48:00;;;;;;;3.28;1.42;;;6.10;52.90;;;;;;2542049;53;20916;-81
2023/02/22 04:50:27;;;;;;;2.92;1.30;;;6.10;52.90;;;;;;2552023;53;20899;-82
2023/02/22 04:53:02;;;;;;;4.18;1.75;;;6.10;53.00;;;;;;2551831;53;20899;-81
2023/02/22 04:55:28;;;;;;;4.25;2.00;;;6.10;53.00;;;;;;2552964;53;21011;-82
2023/02/22 04:58:01;;;;;;;6.70;3.20;;;6.10;53.00;;;;;;2551857;53;20868;-81
2023/02/22 05:00:31;;;;;;;6.68;3.42;;;6.10;53.10;;;;;;2514000;53;20938;-82
2023/02/22 05:03:02;;;;;;;6.05;3.40;;;6.00;53.00;;;;;;2543978;53;20943;-81
2023/02/22 05:05:29;;;;;;;7.37;3.17;;;6.00;53.10;;;;;;2314221;53;20952;-81
2023/02/22 05:08:00;;;;;;;5.65;2.45;;;6.00;53.10;;;;;;2551631;53;21007;-81
2023/02/22 05:10:28;;;;;;;4.05;1.98;;;6.00;53.10;;;;;;2552304;53;20942;-80
2023/02/22 05:13:12;;;;;;;4.97;2.30;;;6.00;53.10;;;;;;2551491;53;20836;-81
2023/02/22 05:15:47;;;;;;;5.68;2.62;;;6.00;53.20;;;;;;2552577;53;20934;-81
2023/02/22 05:18:20;;;;;;;4.68;2.25;;;6.00;53.20;;;;;;2552583;53;20907;-82
2023/02/22 05:20:58;;;;;;;5.10;2.20;;;6.00;53.20;;;;;;2306606;53;20872;-81
2023/02/22 05:23:25;;;;;;;2.95;1.45;;;6.00;53.10;;;;;;2552172;53;21026;-81
2023/02/22 05:25:52;;;;;;;5.00;2.03;;;6.00;53.10;;;;;;2306990;54;20891;-82
2023/02/22 05:28:22;;;;;;;3.92;1.80;;;6.00;53.10;;;;;;2545498;53;20893;-81
2023/02/22 05:31:00;;;;;;;4.68;2.15;;;6.00;53.20;;;;;;2544113;53;21030;-82
2023/02/22 05:33:27;;;;;;;3.87;1.60;;;6.00;53.10;;;;;;2553381;53;20884;-82
2023/02/22 05:35:58;;;;;;;3.47;1.70;;;6.00;53.20;;;;;;2546372;53;20971;-82
2023/02/22 05:38:42;;;;;;;3.58;1.80;;;6.00;53.20;;;;;;2552211;53;20939;-81
2023/02/22 05:41:09;;;;;;;3.55;1.60;;;5.90;53.20;;;;;;2307145;53;22387;-82
2023/02/22 05:44:01;;;;;;;4.60;1.90;;;5.90;53.10;;;;;;2551592;53;20924;-81
2023/02/22 05:46:28;;;;;;;;;;;5.90;53.10;;;;;;2556414;53;20971;-82
2023/02/22 05:48:55;;;;;;;3.75;1.50;;;5.90;53.30;;;;;;2317651;54;20092;-81
2023/02/22 05:51:30;;;;;;;2.67;1.27;;;5.90;53.00;;;;;;2528779;53;21510;-82
2023/02/22 05:53:57;;;;;;;3.90;2.00;;;5.90;53.10;;;;;;2551740;53;20904;-81
2023/02/22 05:56:33;;;;;;;4.78;2.35;;;5.90;53.10;;;;;;2544704;53;21031;-82
2023/02/22 05:59:02;;;;;;;4.85;2.33;;;5.80;53.10;;;;;;2551351;53;21414;-82
2023/02/22 06:01:31;;;;;;;4.22;2.28;;;5.80;53.10;;;;;;2551278;53;20980;-82
2023/02/22 06:04:00;;;;;;;3.90;1.92;;;5.70;53.10;;;;;;2543673;53;20963;-81
2023/02/22 06:06:26;;;;;;;5.50;2.33;;;5.80;53.20;;;;;;2547139;53;21028;-82
2023/02/22 06:08:56;;;;;;;4.80;1.55;;;5.70;53.10;;;;;;2532945;53;20939;-81
2023/02/22 06:11:27;;;;;;;3.83;1.75;;;5.80;53.20;;;;;;2544297;53;20947;-82
2023/02/22 06:13:54;;;;;;;3.20;1.58;;;5.80;53.10;;;;;;2552466;53;20919;-82
2023/02/22 06:16:21;;;;;;;3.65;1.80;;;5.60;53.00;;;;;;2312892;53;20910;-81
2023/02/22 06:18:53;;;;;;;3.90;1.80;;;5.70;53.10;;;;;;2546848;53;20944;-81
2023/02/22 06:21:19;;;;;;;;;;;5.70;53.20;;;;;;2313788;53;21007;-81
2023/02/22 06:23:49;;;;;;;3.95;1.40;;;5.70;53.30;;;;;;2552269;53;20060;-81
2023/02/22 06:26:17;;;;;;;3.75;1.98;;;5.60;52.90;;;;;;2551644;53;20943;-81
2023/02/22 06:28:44;;;;;;;3.78;1.87;;;5.70;53.10;;;;;;2318324;54;21046;-81
2023/02/22 06:31:24;;;;;;;4.75;2.55;;;5.60;53.10;;;;;;2526747;53;20955;-82
2023/02/22 06:33:55;;;;;;;5.43;2.37;;;5.60;53.30;;;;;;2314248;54;20948;-81
2023/02/22 06:36:21;;;;;;;4.60;2.30;;;5.60;53.20;;;;;;2311235;54;20951;-81
2023/02/22 06:39:09;;;;;;;5.57;2.50;;;5.60;53.30;;;;;;2542310;53;21296;-81
2023/02/22 06:41:40;;;;;;;4.53;2.30;;;5.60;53.40;;;;;;2313429;53;20940;-82
2023/02/22 06:44:08;;;;;;;6.70;2.53;;;5.60;53.30;;;;;;2311906;54;20939;-81
2023/02/22 06:46:34;;;;;;;4.82;2.33;;;5.70;53.40;;;;;;2545396;53;21028;-81
2023/02/22 06:49:09;;;;;;;4.90;2.75;;;5.60;53.30;;;;;;2548548;53;20930;-82
2023/02/22 06:51:36;;;;;;;8.65;3.35;;;5.50;53.40;;;;;;2551808;53;20954;-82
2023/02/22 06:54:03;;;;;;;5.95;2.97;;;5.50;53.30;;;;;;2551237;53;20952;-82
2023/02/22 06:56:29;;;;;;;6.07;2.72;;;5.50;53.40;;;;;;2543332;53;20933;-82
2023/02/22 06:58:56;;;;;;;7.22;4.05;;;5.50;53.40;;;;;;2550732;53;20872;-82
2023/02/22 07:01:22;;;;;;;7.45;3.20;;;5.50;53.50;;;;;;2312826;53;20943;-81
2023/02/22 07:03:49;;;;;;;8.25;4.07;;;5.50;53.50;;;;;;2551024;53;20919;-81
2023/02/22 07:06:16;;;;;;;10.27;4.95;;;5.40;53.40;;;;;;2542126;53;20911;-81
2023/02/22 07:08:45;;;;;;;15.18;6.70;;;5.50;53.60;;;;;;2552232;53;20947;-82
2023/02/22 07:11:12;;;;;;;10.25;5.30;;;5.50;53.80;;;;;;2550760;53;21631;-82
2023/02/22 07:13:39;;;;;;;9.77;5.32;;;5.50;53.70;;;;;;2551875;53;20935;-81
2023/02/22 07:16:05;;;;;;;10.32;5.03;;;5.60;54.00;;;;;;2542140;53;20925;-82
2023/02/22 07:18:32;;;;;;;10.32;5.72;;;5.60;54.00;;;;;;2313441;53;20964;-82
2023/02/22 07:20:59;;;;;;;10.02;5.97;;;5.60;54.10;;;;;;2551327;53;20827;-83
2023/02/22 07:23:29;;;;;;;13.57;6.80;;;5.60;54.10;;;;;;2552391;53;20975;-82
2023/02/22 07:26:03;;;;;;;14.77;7.50;;;5.60;54.20;;;;;;2551743;53;20948;-82
2023/02/22 07:28:36;;;;;;;12.75;6.78;;;5.70;54.40;;;;;;2552428;53;20951;-82
2023/02/22 07:31:05;;;;;;;14.00;7.50;;;5.70;54.50;;;;;;2312288;53;20943;-82
2023/02/22 07:33:37;;;;;;;14.50;7.57;;;5.70;54.60;;;;;;2548012;53;20919;-81
2023/02/22 07:36:16;;;;;;;16.00;8.77;;;5.80;54.80;;;;;;2547424;53;21222;-82
2023/02/22 07:38:44;;;;;;;18.75;9.30;;;5.80;54.90;;;;;;2313258;53;20952;-82
2023/02/22 07:41:13;;;;;;;18.87;10.35;;;5.90;55.10;;;;;;2550613;53;21022;-82
2023/02/22 07:43:46;;;;;;;16.95;9.80;;;6.00;55.20;;;;;;2552181;53;20915;-82
2023/02/22 07:46:15;;;;;;;17.75;8.68;;;6.00;55.30;;;;;;2551071;53;20915;-81
2023/02/22 07:48:42;;;;;;;15.27;8.23;;;6.10;55.40;;;;;;2551758;53;20896;-82
2023/02/22 07:51:08;;;;;;;16.27;7.72;;;6.20;55.50;;;;;;2550276;53;20923;-82
2023/02/22 07:53:35;;;;;;;15.00;8.05;;;6.20;55.60;;;;;;2552646;53;20935;-82
2023/02/22 07:56:04;;;;;;;13.93;7.55;;;6.30;55.70;;;;;;2551133;53;22192;-82
2023/02/22 07:58:30;;;;;;;11.25;6.37;;;6.40;55.90;;;;;;2552207;53;20911;-82
2023/02/22 08:00:57;;;;;;;10.48;5.78;;;6.50;55.90;;;;;;2312325;53;20904;-82
2023/02/22 08:03:24;;;;;;;9.18;5.20;;;6.50;55.90;;;;;;2552142;53;20995;-82
2023/02/22 08:05:53;;;;;;;9.32;4.93;;;6.60;56.00;;;;;;2309618;54;20929;-81
2023/02/22 08:08:22;;;;;;;10.23;5.65;;;6.70;56.00;;;;;;2538855;53;20927;-82
2023/02/22 08:10:49;;;;;;;10.52;5.90;;;6.80;56.10;;;;;;2539567;53;20923;-83
2023/02/22 08:13:15;;;;;;;10.95;5.57;;;6.90;56.20;;;;;;2537397;53;20910;-83
2023/02/22 08:15:43;;;;;;;9.60;5.60;;;7.00;56.20;;;;;;2530606;53;22173;-83
2023/02/22 08:18:11;;;;;;;10.23;5.93;;;7.00;56.20;;;;;;2538305;53;20927;-82
2023/02/22 08:20:38;;;;;;;10.60;5.90;;;7.10;56.30;;;;;;2539721;53;20952;-82
2023/02/22 08:23:04;;;;;;;9.98;6.00;;;7.20;56.40;;;;;;2538655;53;21800;-83
2023/02/22 08:25:31;;;;;;;12.27;6.22;;;7.30;56.50;;;;;;2539604;53;20828;-81
2023/02/22 08:28:00;;;;;;;10.52;6.20;;;7.40;56.60;;;;;;2539034;53;20873;-82
2023/02/22 08:30:27;;;;;;;11.60;6.75;;;7.50;56.70;;;;;;2539081;53;21062;-83
2023/02/22 08:32:53;;;;;;;11.43;6.95;;;7.60;56.80;;;;;;2539148;53;20967;-83
2023/02/22 08:35:20;;;;;;;11.98;6.85;;;7.70;56.90;;;;;;2538711;53;21366;-83
2023/02/22 08:37:48;;;;;;;10.60;6.78;;;7.80;57.10;;;;;;2539647;53;20970;-82
2023/02/22 08:40:16;;;;;;;9.90;5.82;;;8.00;57.30;;;;;;2538294;53;21466;-82
2023/02/22 08:42:42;;;;;;;8.70;5.03;;;8.00;57.20;;;;;;2539433;53;20955;-82
2023/02/22 08:45:09;;;;;;;10.90;4.80;;;8.20;57.40;;;;;;2538084;53;21031;-82
2023/02/22 08:47:36;;;;;;;7.28;3.67;;;8.30;57.50;;;;;;2539790;53;22016;-81
2023/02/22 08:50:02;;;;;;;5.37;3.12;;;8.40;57.50;;;;;;2540136;53;21058;-83
2023/02/22 08:52:28;;;;;;;5.95;2.97;;;8.40;57.50;;;;;;2540935;53;21500;-82
2023/02/22 08:54:56;;;;;;;7.10;3.00;;;8.70;57.60;;;;;;2539963;53;20935;-83
2023/02/22 08:57:22;;;;;;;5.07;2.83;;;8.80;57.70;;;;;;2540143;53;22018;-84
2023/02/22 08:59:49;;;;;;;6.28;3.12;;;8.90;57.70;;;;;;2540190;53;20928;-83
2023/02/22 09:02:19;;;;;;;7.60;3.60;;;9.00;57.80;;;;;;2539327;53;20951;-83
2023/02/22 09:04:46;;;;;;;4.93;3.00;;;9.20;58.00;;;;;;2541193;53;20983;-83
2023/02/22 09:07:13;;;;;;;7.78;3.67;;;9.30;58.10;;;;;;2302550;53;20907;-83
2023/02/22 09:09:41;;;;;;;8.48;3.97;;;9.50;58.20;;;;;;2539003;53;20900;-83
2023/02/22 09:12:08;;;;;;;8.70;4.78;;;9.60;58.30;;;;;;2295844;54;20895;-84
2023/02/22 09:14:34;;;;;;;9.45;5.32;;;9.70;58.20;;;;;;2535415;52;21522;-84
2023/02/22 09:17:01;;;;;;;8.00;4.65;;;9.90;58.30;;;;;;2534506;53;20931;-83
2023/02/22 09:19:29;;;;;;;9.88;5.40;;;10.10;57.40;;;;;;2527142;53;20985;-83
2023/02/22 09:21:56;;;;;;;11.18;4.97;;;10.20;57.50;;;;;;2533154;53;20939;-83
2023/02/22 09:24:23;;;;;;;10.02;4.90;;;10.30;57.50;;;;;;2535030;53;20965;-84
2023/02/22 09:26:55;;;;;;;7.35;4.03;;;10.30;57.50;;;;;;2534846;53;22484;-84
2023/02/22 09:29:23;;;;;;;8.57;4.28;;;10.70;57.90;;;;;;2534584;53;20963;-83
2023/02/22 09:31:51;;;;;;;8.07;4.55;;;10.90;58.00;;;;;;2534713;53;21284;-83
2023/02/22 09:34:18;;;;;;;6.93;3.83;;;11.00;58.00;;;;;;2534574;53;20918;-83
2023/02/22 09:36:48;;;;;;;7.25;3.97;;;11.20;58.00;;;;;;2535258;53;21027;-83
2023/02/22 09:39:15;;;;;;;7.43;3.72;;;11.40;58.20;;;;;;2533744;53;20971;-84
2023/02/22 09:42:05;;;;;;;7.15;4.40;;;11.60;58.30;;;;;;2528596;53;21026;-83
2023/02/22 09:44:36;;;;;;;6.03;3.83;;;11.80;58.50;;;;;;2535204;53;22023;-84
2023/02/22 09:47:03;;;;;;;9.20;3.85;;;12.00;58.30;;;;;;2535377;53;20939;-84
2023/02/22 09:49:41;;;;;;;6.47;3.85;;;12.20;58.20;;;;;;2298409;53;20888;-83
2023/02/22 09:52:17;;;;;;;6.62;3.00;;;12.40;58.10;;;;;;2533441;53;20981;-83
2023/02/22 09:54:50;;;;;;;5.37;3.05;;;12.50;58.10;;;;;;2535539;53;21973;-83
2023/02/22 09:57:24;;;;;;;4.75;2.58;;;12.70;58.10;;;;;;2534546;53;21097;-83
2023/02/22 10:00:00;;;;;;;4.82;2.30;;;12.90;58.00;;;;;;2535156;53;20923;-83
2023/02/22 10:02:33;;;;;;;4.40;2.60;;;13.10;57.80;;;;;;2534946;53;21026;-82
2023/02/22 10:05:04;;;;;;;5.95;3.20;;;13.20;57.60;;;;;;2534145;53;21145;-84
2023/02/22 10:07:40;;;;;;;6.55;3.42;;;13.40;57.40;;;;;;2535048;53;20947;-83
2023/02/22 10:10:06;;;;;;;7.07;3.53;;;13.50;57.20;;;;;;2534593;53;22090;-82
2023/02/22 10:12:46;;;;;;;6.28;3.67;;;13.70;57.20;;;;;;2534839;53;20962;-83
2023/02/22 10:16:19;;;;;;;5.65;3.25;;;13.80;57.00;;;;;;2297421;53;20891;-84
2023/02/22 10:21:53;;;;;;;;;;;14.00;57.00;;;;;;2538273;53;20986;-83
2023/02/22 10:25:23;;;;;;;5.28;2.97;;;14.10;56.90;;;;;;2533953;53;20167;-83
2023/02/22 10:28:34;;;;;;;5.68;2.72;;;14.50;56.60;;;;;;2526859;53;21099;-82
2023/02/22 10:31:07;;;;;;;6.68;3.47;;;14.60;56.40;;;;;;2296059;53;20951;-84
2023/02/22 10:33:46;;;;;;;6.97;3.53;;;14.70;56.70;;;;;;2294319;53;20911;-84
2023/02/22 10:36:18;;;;;;;5.65;3.22;;;14.80;56.60;;;;;;2533210;53;21700;-84
2023/02/22 10:42:17;;;;;;;5.05;2.83;;;15.00;56.70;;;;;;2534004;53;21018;-84
2023/02/22 10:44:43;;;;;;;5.22;2.72;;;15.30;56.60;;;;;;2533522;53;20960;-84
2023/02/22 10:47:10;;;;;;;4.60;2.60;;;15.40;56.60;;;;;;2533609;53;20958;-82
2023/02/22 10:49:41;;;;;;;5.35;3.08;;;15.50;56.50;;;;;;2525947;53;20984;-84
2023/02/22 10:52:26;;;;;;;5.65;2.90;;;15.60;56.40;;;;;;2533553;53;20994;-84
2023/02/22 10:54:54;;;;;;;5.53;3.47;;;15.70;56.10;;;;;;2534344;53;21022;-84
2023/02/22 10:57:29;;;;;;;7.93;4.55;;;15.70;56.10;;;;;;2535225;53;20896;-83
2023/02/22 10:59:56;;;;;;;7.65;4.80;;;15.90;56.20;;;;;;2535609;53;20884;-83
2023/02/22 11:02:32;;;;;;;8.25;5.00;;;16.00;56.50;;;;;;2534198;53;20964;-83
2023/02/22 11:04:59;;;;;;;10.32;5.28;;;16.20;56.30;;;;;;2531815;53;22076;-83
2023/02/22 11:07:31;;;;;;;9.38;5.07;;;16.20;56.40;;;;;;2534787;53;20959;-84
2023/02/22 11:10:02;;;;;;;8.98;5.65;;;16.40;56.30;;;;;;2299502;53;20911;-82
2023/02/22 11:12:33;;;;;;;9.70;6.20;;;16.60;56.40;;;;;;2536892;53;21054;-83
2023/02/22 11:21:50;;;;;;;9.43;6.30;;;16.70;56.40;;;;;;2536634;53;20959;-83
2023/02/22 11:24:16;;;;;;;6.50;4.15;;;17.30;55.80;;;;;;2535365;53;21955;-85
2023/02/22 11:26:47;;;;;;;7.20;5.03;;;17.40;55.80;;;;;;2529907;54;20943;-83
2023/02/22 11:29:35;;;;;;;10.70;6.35;;;17.40;55.40;;;;;;2300533;53;20991;-83
2023/02/22 11:32:19;;;;;;;14.48;7.78;;;17.50;54.70;;;;;;2300211;53;20951;-84
2023/02/22 11:34:48;;;;;;;11.70;7.35;;;17.60;54.80;;;;;;2300713;53;21006;-84
2023/02/22 11:37:49;;;;;;;11.30;6.82;;;17.70;54.80;;;;;;2535881;53;20947;-83
2023/02/22 11:40:21;;;;;;;11.60;7.10;;;17.70;54.20;;;;;;2534534;53;21110;-83
2023/02/22 11:43:11;;;;;;;10.77;6.68;;;17.80;54.70;;;;;;2536491;53;22015;-83
2023/02/22 11:45:38;;;;;;;12.20;7.50;;;17.80;54.00;;;;;;2300289;53;20976;-83
2023/02/22 11:48:18;;;;;;;12.10;7.32;;;17.90;54.50;;;;;;2535698;53;20938;-82
2023/02/22 11:52:49;;;;;;;12.37;6.78;;;17.90;54.10;;;;;;2297274;53;20952;-82
2023/02/22 11:55:43;;;;;;;11.85;6.68;;;18.00;54.20;;;;;;2298519;53;20943;-83
2023/02/22 11:59:03;;;;;;;11.77;6.93;;;18.00;53.70;;;;;;2534318;53;20978;-82
2023/02/22 12:02:23;;;;;;;10.15;6.60;;;18.10;53.60;;;;;;2533621;53;20950;-82
2023/02/22 12:05:08;;;;;;;10.98;6.55;;;18.10;54.10;;;;;;2534726;53;20951;-82
2023/02/22 12:08:00;;;;;;;11.00;6.32;;;18.10;53.40;;;;;;2534130;53;22397;-83
2023/02/22 12:10:45;;;;;;;8.90;5.90;;;18.10;53.20;;;;;;2534584;53;21003;-83
2023/02/22 12:13:36;;;;;;;12.15;6.50;;;18.10;53.20;;;;;;2298921;53;22381;-84
2023/02/22 12:17:09;;;;;;;10.32;6.12;;;18.20;53.20;;;;;;2534699;53;20994;-83
2023/02/22 12:19:53;;;;;;;11.12;6.97;;;18.20;53.40;;;;;;2535248;53;22076;-82
2023/02/22 12:22:33;;;;;;;9.77;6.15;;;18.20;52.70;;;;;;2534596;53;21440;-84
2023/02/22 12:25:28;;;;;;;13.27;7.20;;;18.20;52.90;;;;;;2535151;53;21443;-83
2023/02/22 12:28:05;;;;;;;12.85;6.93;;;18.20;52.70;;;;;;2533847;53;20951;-83
2023/02/22 12:30:43;;;;;;;9.10;5.87;;;18.20;53.00;;;;;;2299634;53;20971;-83
2023/02/22 12:33:14;;;;;;;8.85;6.20;;;18.20;53.10;;;;;;2534398;54;20979;-82
2023/02/22 12:35:52;;;;;;;10.90;7.07;;;18.20;53.00;;;;;;2535197;53;20947;-83
2023/02/22 12:38:32;;;;;;;9.57;6.35;;;18.20;53.10;;;;;;2533530;53;20943;-83
2023/02/22 12:41:33;;;;;;;13.07;6.85;;;18.20;53.00;;;;;;2533849;53;21005;-83
2023/02/22 12:44:09;;;;;;;10.48;6.80;;;18.30;52.60;;;;;;2298818;53;20950;-83
2023/02/22 12:46:38;;;;;;;12.02;7.78;;;18.30;53.10;;;;;;2533854;53;21050;-82
2023/02/22 12:49:25;;;;;;;11.23;8.02;;;18.40;53.10;;;;;;2533532;53;20927;-82
2023/02/22 12:52:09;;;;;;;11.77;8.07;;;18.40;52.80;;;;;;2298180;53;20964;-83
2023/02/22 12:56:48;;;;;;;12.15;7.03;;;18.40;52.60;;;;;;2534527;53;21500;-83
2023/02/22 13:02:19;;;;;;;11.45;7.40;;;18.50;52.60;;;;;;2534486;53;20998;-84
2023/02/22 13:04:46;;;;;;;10.05;6.47;;;18.60;52.60;;;;;;2531417;53;21450;-82
2023/02/22 13:08:40;;;;;;;9.90;6.87;;;18.60;52.80;;;;;;2294215;53;21412;-83
2023/02/22 13:12:15;;;;;;;10.10;6.80;;;18.60;52.20;;;;;;2529548;53;21918;-82
2023/02/22 13:15:39;;;;;;;10.02;6.93;;;18.60;52.40;;;;;;2531886;53;20970;-83
2023/02/22 13:18:51;;;;;;;21.80;11.85;;;18.70;52.20;;;;;;2529747;53;20971;-83
2023/02/22 13:24:03;;;;;;;13.48;8.75;;;18.70;51.90;;;;;;2529157;53;21600;-82
2023/02/22 13:26:52;;;;;;;14.25;8.52;;;18.80;51.90;;;;;;2294288;53;21880;-82
2023/02/22 13:29:21;;;;;;;12.05;8.25;;;18.80;51.70;;;;;;2294466;53;20967;-86
2023/02/22 13:32:02;;;;;;;14.30;9.02;;;18.80;52.00;;;;;;2297713;53;20951;-83
2023/02/22 13:41:21;;;;;;;13.48;8.90;;;18.70;51.60;;;;;;2532780;53;20983;-82
2023/02/22 13:44:11;;;;;;;16.55;12.88;;;18.60;51.70;;;;;;2534265;53;20974;-84
2023/02/22 13:48:30;;;;;;;13.18;9.00;;;18.80;51.90;;;;;;2295857;53;21016;-83
2023/02/22 13:51:09;;;;;;;13.27;9.98;;;18.70;51.60;;;;;;2534100;53;20979;-83
2023/02/22 13:54:19;;;;;;;12.05;8.82;;;18.80;51.70;;;;;;2299030;53;20942;-82
2023/02/22 13:56:47;;;;;;;12.95;8.05;;;18.80;51.50;;;;;;2529103;53;20988;-82
2023/02/22 13:59:26;;;;;;;11.98;7.62;;;18.70;51.90;;;;;;2530867;53;20939;-83
2023/02/22 14:01:53;;;;;;;12.13;7.37;;;18.80;51.60;;;;;;2298093;53;20943;-83
2023/02/22 14:04:35;;;;;;;12.60;7.50;;;18.70;51.80;;;;;;2533856;53;20931;-82